sensor_id;sensor_type;location;lat;lon;timestamp;P1;durP1;ratioP1;P2;durP2;ratioP2
11346;SDS011;5728;42.722;23.258;2022-12-01T00:00:13;1.07;;;1.07;;
11346;SDS011;5728;42.722;23.258;2022-12-01T00:02:40;1.47;;;1.30;;
11346;SDS011;5728;42.722;23.258;2022-12-01T00:05:08;2.07;;;1.30;;
11346;SDS011;5728;42.722;23.258;2022-12-01T00:07:35;1.30;;;1.20;;
11346;SDS011;5728;42.722;23.258;2022-12-01T00:10:02;1.50;;;1.30;;
11346;SDS011;5728;42.722;23.258;2022-12-01T00:12:47;1.37;;;1.27;;
11346;SDS011;5728;42.722;23.258;2022-12-01T00:15:14;1.50;;;1.37;;
11346;SDS011;5728;42.722;23.258;2022-12-01T00:17:41;1.30;;;1.00;;
11346;SDS011;5728;42.722;23.258;2022-12-01T00:20:11;1.03;;;1.03;;
11346;SDS011;5728;42.722;23.258;2022-12-01T00:22:40;1.17;;;1.07;;
11346;SDS011;5728;42.722;23.258;2022-12-01T00:25:08;1.37;;;1.10;;
11346;SDS011;5728;42.722;23.258;2022-12-01T00:27:35;1.30;;;1.20;;
11346;SDS011;5728;42.722;23.258;2022-12-01T00:30:02;1.10;;;1.10;;
11346;SDS011;5728;42.722;23.258;2022-12-01T00:32:29;1.40;;;1.20;;
11346;SDS011;5728;42.722;23.258;2022-12-01T00:34:56;1.60;;;1.37;;
11346;SDS011;5728;42.722;23.258;2022-12-01T00:37:25;1.67;;;1.17;;
11346;SDS011;5728;42.722;23.258;2022-12-01T00:39:52;1.20;;;1.10;;
11346;SDS011;5728;42.722;23.258;2022-12-01T00:42:18;5.30;;;1.50;;
11346;SDS011;5728;42.722;23.258;2022-12-01T00:44:46;1.10;;;1.10;;
11346;SDS011;5728;42.722;23.258;2022-12-01T00:47:13;1.30;;;1.10;;
11346;SDS011;5728;42.722;23.258;2022-12-01T00:49:40;1.43;;;1.13;;
11346;SDS011;5728;42.722;23.258;2022-12-01T00:52:09;1.33;;;1.23;;
11346;SDS011;5728;42.722;23.258;2022-12-01T00:54:38;1.43;;;1.33;;
11346;SDS011;5728;42.722;23.258;2022-12-01T00:57:05;2.03;;;1.57;;
11346;SDS011;5728;42.722;23.258;2022-12-01T00:59:32;2.47;;;1.20;;
11346;SDS011;5728;42.722;23.258;2022-12-01T01:02:00;1.73;;;1.43;;
11346;SDS011;5728;42.722;23.258;2022-12-01T01:04:28;1.53;;;1.40;;
11346;SDS011;5728;42.722;23.258;2022-12-01T01:06:55;1.67;;;1.47;;
11346;SDS011;5728;42.722;23.258;2022-12-01T01:09:22;2.43;;;1.63;;
11346;SDS011;5728;42.722;23.258;2022-12-01T01:11:51;2.57;;;1.50;;
11346;SDS011;5728;42.722;23.258;2022-12-01T01:14:18;2.33;;;1.53;;
11346;SDS011;5728;42.722;23.258;2022-12-01T01:16:45;3.00;;;1.40;;
11346;SDS011;5728;42.722;23.258;2022-12-01T01:19:12;1.50;;;1.40;;
11346;SDS011;5728;42.722;23.258;2022-12-01T01:21:39;2.83;;;1.47;;
11346;SDS011;5728;42.722;23.258;2022-12-01T01:24:06;2.03;;;1.30;;
11346;SDS011;5728;42.722;23.258;2022-12-01T01:26:33;1.73;;;0.93;;
11346;SDS011;5728;42.722;23.258;2022-12-01T01:29:02;1.17;;;1.10;;
11346;SDS011;5728;42.722;23.258;2022-12-01T01:31:32;1.30;;;1.10;;
11346;SDS011;5728;42.722;23.258;2022-12-01T01:34:00;2.63;;;1.30;;
11346;SDS011;5728;42.722;23.258;2022-12-01T01:36:28;1.30;;;1.10;;
11346;SDS011;5728;42.722;23.258;2022-12-01T01:38:54;1.03;;;1.03;;
11346;SDS011;5728;42.722;23.258;2022-12-01T01:41:21;1.87;;;1.40;;
11346;SDS011;5728;42.722;23.258;2022-12-01T01:43:49;2.13;;;1.53;;
11346;SDS011;5728;42.722;23.258;2022-12-01T01:46:20;1.30;;;1.20;;
11346;SDS011;5728;42.722;23.258;2022-12-01T01:48:49;1.20;;;1.20;;
11346;SDS011;5728;42.722;23.258;2022-12-01T01:51:19;1.77;;;1.40;;
11346;SDS011;5728;42.722;23.258;2022-12-01T01:53:52;1.20;;;1.10;;
11346;SDS011;5728;42.722;23.258;2022-12-01T01:56:22;1.10;;;1.10;;
11346;SDS011;5728;42.722;23.258;2022-12-01T01:58:49;1.20;;;1.10;;
11346;SDS011;5728;42.722;23.258;2022-12-01T02:01:17;1.17;;;1.07;;
11346;SDS011;5728;42.722;23.258;2022-12-01T02:03:45;1.73;;;1.20;;
11346;SDS011;5728;42.722;23.258;2022-12-01T02:06:13;1.47;;;1.10;;
11346;SDS011;5728;42.722;23.258;2022-12-01T02:08:40;1.00;;;1.00;;
11346;SDS011;5728;42.722;23.258;2022-12-01T02:14:00;1.20;;;1.10;;
11346;SDS011;5728;42.722;23.258;2022-12-01T02:16:38;1.10;;;1.00;;
11346;SDS011;5728;42.722;23.258;2022-12-01T02:19:20;1.10;;;1.00;;
11346;SDS011;5728;42.722;23.258;2022-12-01T02:22:09;0.93;;;0.93;;
11346;SDS011;5728;42.722;23.258;2022-12-01T02:25:00;1.70;;;1.30;;
11346;SDS011;5728;42.722;23.258;2022-12-01T02:27:46;1.07;;;1.07;;
11346;SDS011;5728;42.722;23.258;2022-12-01T02:30:39;1.43;;;1.30;;
11346;SDS011;5728;42.722;23.258;2022-12-01T02:33:10;3.10;;;1.30;;
11346;SDS011;5728;42.722;23.258;2022-12-01T02:35:44;1.73;;;1.60;;
11346;SDS011;5728;42.722;23.258;2022-12-01T02:38:16;2.60;;;1.30;;
11346;SDS011;5728;42.722;23.258;2022-12-01T02:40:51;1.90;;;1.53;;
11346;SDS011;5728;42.722;23.258;2022-12-01T02:43:26;1.57;;;1.30;;
11346;SDS011;5728;42.722;23.258;2022-12-01T02:46:00;1.47;;;1.10;;
11346;SDS011;5728;42.722;23.258;2022-12-01T02:48:32;1.47;;;1.37;;
11346;SDS011;5728;42.722;23.258;2022-12-01T02:51:01;1.37;;;1.27;;
11346;SDS011;5728;42.722;23.258;2022-12-01T02:53:32;0.97;;;0.97;;
11346;SDS011;5728;42.722;23.258;2022-12-01T02:55:59;1.13;;;0.90;;
11346;SDS011;5728;42.722;23.258;2022-12-01T02:58:26;1.00;;;1.00;;
11346;SDS011;5728;42.722;23.258;2022-12-01T03:00:56;1.30;;;1.20;;
11346;SDS011;5728;42.722;23.258;2022-12-01T03:03:53;1.80;;;1.43;;
11346;SDS011;5728;42.722;23.258;2022-12-01T03:06:30;1.47;;;1.37;;
11346;SDS011;5728;42.722;23.258;2022-12-01T03:09:07;1.40;;;1.30;;
11346;SDS011;5728;42.722;23.258;2022-12-01T03:11:43;1.30;;;1.20;;
11346;SDS011;5728;42.722;23.258;2022-12-01T03:14:18;2.50;;;1.40;;
11346;SDS011;5728;42.722;23.258;2022-12-01T03:16:56;1.97;;;1.60;;
11346;SDS011;5728;42.722;23.258;2022-12-01T03:19:31;2.70;;;1.83;;
11346;SDS011;5728;42.722;23.258;2022-12-01T03:22:04;1.30;;;1.20;;
11346;SDS011;5728;42.722;23.258;2022-12-01T03:24:36;4.77;;;1.37;;
11346;SDS011;5728;42.722;23.258;2022-12-01T03:27:06;2.93;;;1.73;;
11346;SDS011;5728;42.722;23.258;2022-12-01T03:29:37;2.00;;;1.60;;
11346;SDS011;5728;42.722;23.258;2022-12-01T03:32:10;4.70;;;1.63;;
11346;SDS011;5728;42.722;23.258;2022-12-01T03:34:42;2.00;;;1.33;;
11346;SDS011;5728;42.722;23.258;2022-12-01T03:37:15;1.90;;;1.43;;
11346;SDS011;5728;42.722;23.258;2022-12-01T03:39:50;2.27;;;1.23;;
11346;SDS011;5728;42.722;23.258;2022-12-01T03:42:21;1.47;;;1.27;;
11346;SDS011;5728;42.722;23.258;2022-12-01T03:44:52;1.50;;;1.40;;
11346;SDS011;5728;42.722;23.258;2022-12-01T03:47:23;1.10;;;1.10;;
11346;SDS011;5728;42.722;23.258;2022-12-01T03:49:53;1.77;;;1.57;;
11346;SDS011;5728;42.722;23.258;2022-12-01T03:52:24;1.47;;;1.37;;
11346;SDS011;5728;42.722;23.258;2022-12-01T03:55:03;1.10;;;1.00;;
11346;SDS011;5728;42.722;23.258;2022-12-01T03:57:38;1.20;;;1.10;;
11346;SDS011;5728;42.722;23.258;2022-12-01T04:00:10;1.13;;;1.10;;
11346;SDS011;5728;42.722;23.258;2022-12-01T04:02:40;1.50;;;1.40;;
11346;SDS011;5728;42.722;23.258;2022-12-01T04:05:08;2.53;;;1.70;;
11346;SDS011;5728;42.722;23.258;2022-12-01T04:07:36;1.33;;;1.23;;
11346;SDS011;5728;42.722;23.258;2022-12-01T04:10:04;2.27;;;1.67;;
11346;SDS011;5728;42.722;23.258;2022-12-01T04:12:32;3.03;;;1.83;;
11346;SDS011;5728;42.722;23.258;2022-12-01T04:14:59;2.80;;;1.50;;
11346;SDS011;5728;42.722;23.258;2022-12-01T04:17:27;2.07;;;1.60;;
11346;SDS011;5728;42.722;23.258;2022-12-01T04:19:58;2.30;;;1.70;;
11346;SDS011;5728;42.722;23.258;2022-12-01T04:22:30;2.80;;;1.93;;
11346;SDS011;5728;42.722;23.258;2022-12-01T04:24:59;2.00;;;1.40;;
11346;SDS011;5728;42.722;23.258;2022-12-01T04:27:26;1.73;;;1.50;;
11346;SDS011;5728;42.722;23.258;2022-12-01T04:29:53;1.57;;;1.33;;
11346;SDS011;5728;42.722;23.258;2022-12-01T04:32:20;3.30;;;1.30;;
11346;SDS011;5728;42.722;23.258;2022-12-01T04:34:46;1.67;;;1.50;;
11346;SDS011;5728;42.722;23.258;2022-12-01T04:37:14;2.30;;;1.70;;
11346;SDS011;5728;42.722;23.258;2022-12-01T04:39:42;4.60;;;1.90;;
11346;SDS011;5728;42.722;23.258;2022-12-01T04:42:09;2.07;;;1.87;;
11346;SDS011;5728;42.722;23.258;2022-12-01T04:44:36;3.43;;;2.10;;
11346;SDS011;5728;42.722;23.258;2022-12-01T04:47:03;5.13;;;2.63;;
11346;SDS011;5728;42.722;23.258;2022-12-01T04:49:31;4.57;;;2.63;;
11346;SDS011;5728;42.722;23.258;2022-12-01T04:51:59;4.03;;;2.33;;
11346;SDS011;5728;42.722;23.258;2022-12-01T04:54:27;2.83;;;2.17;;
11346;SDS011;5728;42.722;23.258;2022-12-01T04:56:53;4.93;;;1.83;;
11346;SDS011;5728;42.722;23.258;2022-12-01T04:59:20;2.90;;;1.70;;
11346;SDS011;5728;42.722;23.258;2022-12-01T05:01:47;2.83;;;1.90;;
11346;SDS011;5728;42.722;23.258;2022-12-01T05:04:14;2.40;;;1.70;;
11346;SDS011;5728;42.722;23.258;2022-12-01T05:06:41;5.77;;;1.53;;
11346;SDS011;5728;42.722;23.258;2022-12-01T05:09:09;1.50;;;1.40;;
11346;SDS011;5728;42.722;23.258;2022-12-01T05:11:40;2.73;;;1.57;;
11346;SDS011;5728;42.722;23.258;2022-12-01T05:14:06;1.97;;;1.47;;
11346;SDS011;5728;42.722;23.258;2022-12-01T05:16:33;2.03;;;1.37;;
11346;SDS011;5728;42.722;23.258;2022-12-01T05:19:00;1.67;;;1.53;;
11346;SDS011;5728;42.722;23.258;2022-12-01T05:21:46;1.60;;;1.50;;
11346;SDS011;5728;42.722;23.258;2022-12-01T05:24:14;2.60;;;1.40;;
11346;SDS011;5728;42.722;23.258;2022-12-01T05:26:43;3.07;;;1.90;;
11346;SDS011;5728;42.722;23.258;2022-12-01T05:29:11;2.83;;;1.80;;
11346;SDS011;5728;42.722;23.258;2022-12-01T05:31:38;3.47;;;1.83;;
11346;SDS011;5728;42.722;23.258;2022-12-01T05:34:05;2.50;;;2.00;;
11346;SDS011;5728;42.722;23.258;2022-12-01T05:36:32;2.40;;;1.97;;
11346;SDS011;5728;42.722;23.258;2022-12-01T05:39:00;2.40;;;1.40;;
11346;SDS011;5728;42.722;23.258;2022-12-01T05:41:27;5.13;;;2.73;;
11346;SDS011;5728;42.722;23.258;2022-12-01T05:43:55;2.43;;;1.57;;
11346;SDS011;5728;42.722;23.258;2022-12-01T05:46:22;2.87;;;2.10;;
11346;SDS011;5728;42.722;23.258;2022-12-01T05:48:48;2.80;;;1.70;;
11346;SDS011;5728;42.722;23.258;2022-12-01T05:51:17;2.03;;;1.60;;
11346;SDS011;5728;42.722;23.258;2022-12-01T05:53:44;1.90;;;1.47;;
11346;SDS011;5728;42.722;23.258;2022-12-01T05:56:11;2.00;;;1.50;;
11346;SDS011;5728;42.722;23.258;2022-12-01T05:58:38;1.57;;;1.40;;
11346;SDS011;5728;42.722;23.258;2022-12-01T06:01:06;9.13;;;1.63;;
11346;SDS011;5728;42.722;23.258;2022-12-01T06:03:34;4.93;;;1.60;;
11346;SDS011;5728;42.722;23.258;2022-12-01T06:06:01;3.40;;;1.80;;
11346;SDS011;5728;42.722;23.258;2022-12-01T06:08:28;3.77;;;2.00;;
11346;SDS011;5728;42.722;23.258;2022-12-01T06:10:54;2.40;;;2.20;;
11346;SDS011;5728;42.722;23.258;2022-12-01T06:13:21;2.63;;;1.90;;
11346;SDS011;5728;42.722;23.258;2022-12-01T06:15:55;1.90;;;1.80;;
11346;SDS011;5728;42.722;23.258;2022-12-01T06:18:24;1.77;;;1.67;;
11346;SDS011;5728;42.722;23.258;2022-12-01T06:20:51;1.63;;;1.53;;
11346;SDS011;5728;42.722;23.258;2022-12-01T06:23:18;1.70;;;1.60;;
11346;SDS011;5728;42.722;23.258;2022-12-01T06:25:45;2.23;;;2.03;;
11346;SDS011;5728;42.722;23.258;2022-12-01T06:28:11;2.87;;;1.70;;
11346;SDS011;5728;42.722;23.258;2022-12-01T06:30:38;3.13;;;1.80;;
11346;SDS011;5728;42.722;23.258;2022-12-01T06:33:05;2.23;;;1.80;;
11346;SDS011;5728;42.722;23.258;2022-12-01T06:35:33;7.43;;;2.80;;
11346;SDS011;5728;42.722;23.258;2022-12-01T06:38:00;2.80;;;2.13;;
11346;SDS011;5728;42.722;23.258;2022-12-01T06:40:27;4.77;;;2.73;;
11346;SDS011;5728;42.722;23.258;2022-12-01T06:42:54;3.87;;;2.63;;
11346;SDS011;5728;42.722;23.258;2022-12-01T06:45:25;2.90;;;2.60;;
11346;SDS011;5728;42.722;23.258;2022-12-01T06:47:52;4.10;;;2.23;;
11346;SDS011;5728;42.722;23.258;2022-12-01T06:50:19;4.50;;;2.57;;
11346;SDS011;5728;42.722;23.258;2022-12-01T06:52:47;5.13;;;2.60;;
11346;SDS011;5728;42.722;23.258;2022-12-01T06:55:14;3.63;;;2.60;;
11346;SDS011;5728;42.722;23.258;2022-12-01T06:57:41;3.37;;;2.47;;
11346;SDS011;5728;42.722;23.258;2022-12-01T07:00:08;4.27;;;3.13;;
11346;SDS011;5728;42.722;23.258;2022-12-01T07:02:36;5.37;;;3.97;;
11346;SDS011;5728;42.722;23.258;2022-12-01T07:05:04;3.30;;;2.90;;
11346;SDS011;5728;42.722;23.258;2022-12-01T07:07:34;4.13;;;3.07;;
11346;SDS011;5728;42.722;23.258;2022-12-01T07:10:03;4.87;;;3.17;;
11346;SDS011;5728;42.722;23.258;2022-12-01T07:12:31;5.60;;;3.20;;
11346;SDS011;5728;42.722;23.258;2022-12-01T07:14:58;8.27;;;5.37;;
11346;SDS011;5728;42.722;23.258;2022-12-01T07:17:25;4.53;;;3.97;;
11346;SDS011;5728;42.722;23.258;2022-12-01T07:19:52;4.13;;;3.27;;
11346;SDS011;5728;42.722;23.258;2022-12-01T07:22:19;3.30;;;2.93;;
11346;SDS011;5728;42.722;23.258;2022-12-01T07:24:46;3.70;;;2.73;;
11346;SDS011;5728;42.722;23.258;2022-12-01T07:27:14;5.53;;;3.53;;
11346;SDS011;5728;42.722;23.258;2022-12-01T07:29:41;3.33;;;2.50;;
11346;SDS011;5728;42.722;23.258;2022-12-01T07:32:07;4.40;;;2.77;;
11346;SDS011;5728;42.722;23.258;2022-12-01T07:34:34;5.83;;;2.93;;
11346;SDS011;5728;42.722;23.258;2022-12-01T07:37:01;4.37;;;2.50;;
11346;SDS011;5728;42.722;23.258;2022-12-01T07:39:28;4.20;;;2.90;;
11346;SDS011;5728;42.722;23.258;2022-12-01T07:41:55;3.77;;;2.80;;
11346;SDS011;5728;42.722;23.258;2022-12-01T07:44:23;5.37;;;3.17;;
11346;SDS011;5728;42.722;23.258;2022-12-01T07:46:50;3.87;;;3.10;;
11346;SDS011;5728;42.722;23.258;2022-12-01T07:49:16;9.33;;;5.57;;
11346;SDS011;5728;42.722;23.258;2022-12-01T07:51:43;6.57;;;4.17;;
11346;SDS011;5728;42.722;23.258;2022-12-01T07:54:10;7.43;;;4.43;;
11346;SDS011;5728;42.722;23.258;2022-12-01T07:56:38;7.40;;;4.67;;
11346;SDS011;5728;42.722;23.258;2022-12-01T07:59:05;5.73;;;4.20;;
11346;SDS011;5728;42.722;23.258;2022-12-01T08:01:34;7.33;;;3.97;;
11346;SDS011;5728;42.722;23.258;2022-12-01T08:04:00;4.90;;;3.23;;
11346;SDS011;5728;42.722;23.258;2022-12-01T08:06:27;5.40;;;4.20;;
11346;SDS011;5728;42.722;23.258;2022-12-01T08:08:54;6.00;;;4.03;;
11346;SDS011;5728;42.722;23.258;2022-12-01T08:11:21;5.33;;;3.60;;
11346;SDS011;5728;42.722;23.258;2022-12-01T08:13:49;7.77;;;4.27;;
11346;SDS011;5728;42.722;23.258;2022-12-01T08:16:17;6.20;;;3.60;;
11346;SDS011;5728;42.722;23.258;2022-12-01T08:18:46;7.67;;;4.93;;
11346;SDS011;5728;42.722;23.258;2022-12-01T08:21:14;8.23;;;4.87;;
11346;SDS011;5728;42.722;23.258;2022-12-01T08:23:43;5.83;;;3.77;;
11346;SDS011;5728;42.722;23.258;2022-12-01T08:26:11;6.93;;;4.20;;
11346;SDS011;5728;42.722;23.258;2022-12-01T08:28:39;6.17;;;3.53;;
11346;SDS011;5728;42.722;23.258;2022-12-01T08:31:07;6.17;;;3.93;;
11346;SDS011;5728;42.722;23.258;2022-12-01T08:33:35;6.30;;;4.20;;
11346;SDS011;5728;42.722;23.258;2022-12-01T08:36:03;5.70;;;3.97;;
11346;SDS011;5728;42.722;23.258;2022-12-01T08:38:31;5.10;;;3.50;;
11346;SDS011;5728;42.722;23.258;2022-12-01T08:40:58;4.87;;;2.77;;
11346;SDS011;5728;42.722;23.258;2022-12-01T08:43:25;3.73;;;2.80;;
11346;SDS011;5728;42.722;23.258;2022-12-01T08:45:52;3.33;;;2.70;;
11346;SDS011;5728;42.722;23.258;2022-12-01T08:48:19;2.90;;;2.60;;
11346;SDS011;5728;42.722;23.258;2022-12-01T08:50:46;4.77;;;3.20;;
11346;SDS011;5728;42.722;23.258;2022-12-01T08:53:14;6.27;;;3.30;;
11346;SDS011;5728;42.722;23.258;2022-12-01T08:55:41;5.13;;;3.27;;
11346;SDS011;5728;42.722;23.258;2022-12-01T08:58:07;6.60;;;3.53;;
11346;SDS011;5728;42.722;23.258;2022-12-01T09:00:34;3.70;;;2.60;;
11346;SDS011;5728;42.722;23.258;2022-12-01T09:03:01;4.43;;;2.77;;
11346;SDS011;5728;42.722;23.258;2022-12-01T09:05:27;5.90;;;4.03;;
11346;SDS011;5728;42.722;23.258;2022-12-01T09:07:54;6.40;;;3.27;;
11346;SDS011;5728;42.722;23.258;2022-12-01T09:10:36;5.50;;;3.10;;
11346;SDS011;5728;42.722;23.258;2022-12-01T09:13:03;5.73;;;3.50;;
11346;SDS011;5728;42.722;23.258;2022-12-01T09:15:30;4.50;;;3.13;;
11346;SDS011;5728;42.722;23.258;2022-12-01T09:17:57;4.00;;;2.40;;
11346;SDS011;5728;42.722;23.258;2022-12-01T09:20:24;5.83;;;3.83;;
11346;SDS011;5728;42.722;23.258;2022-12-01T09:22:50;5.70;;;3.53;;
11346;SDS011;5728;42.722;23.258;2022-12-01T09:25:17;3.53;;;2.27;;
11346;SDS011;5728;42.722;23.258;2022-12-01T09:27:45;2.67;;;2.40;;
11346;SDS011;5728;42.722;23.258;2022-12-01T09:30:12;3.97;;;2.77;;
11346;SDS011;5728;42.722;23.258;2022-12-01T09:32:39;3.60;;;2.23;;
11346;SDS011;5728;42.722;23.258;2022-12-01T09:35:06;2.93;;;2.47;;
11346;SDS011;5728;42.722;23.258;2022-12-01T09:37:34;2.30;;;2.10;;
11346;SDS011;5728;42.722;23.258;2022-12-01T09:40:00;5.37;;;2.87;;
11346;SDS011;5728;42.722;23.258;2022-12-01T09:42:27;3.30;;;2.73;;
11346;SDS011;5728;42.722;23.258;2022-12-01T09:44:56;3.20;;;2.23;;
11346;SDS011;5728;42.722;23.258;2022-12-01T09:47:27;4.83;;;2.70;;
11346;SDS011;5728;42.722;23.258;2022-12-01T09:49:57;3.33;;;2.43;;
11346;SDS011;5728;42.722;23.258;2022-12-01T09:52:28;9.10;;;3.43;;
11346;SDS011;5728;42.722;23.258;2022-12-01T09:54:59;3.93;;;2.57;;
11346;SDS011;5728;42.722;23.258;2022-12-01T09:57:30;5.33;;;3.20;;
11346;SDS011;5728;42.722;23.258;2022-12-01T10:00:02;15.10;;;7.50;;
11346;SDS011;5728;42.722;23.258;2022-12-01T10:02:37;13.80;;;6.17;;
11346;SDS011;5728;42.722;23.258;2022-12-01T10:05:11;9.73;;;5.30;;
11346;SDS011;5728;42.722;23.258;2022-12-01T10:07:42;4.10;;;2.83;;
11346;SDS011;5728;42.722;23.258;2022-12-01T10:10:15;4.33;;;2.90;;
11346;SDS011;5728;42.722;23.258;2022-12-01T10:12:46;4.50;;;3.10;;
11346;SDS011;5728;42.722;23.258;2022-12-01T10:15:22;8.13;;;4.23;;
11346;SDS011;5728;42.722;23.258;2022-12-01T10:18:03;5.03;;;3.20;;
11346;SDS011;5728;42.722;23.258;2022-12-01T10:20:43;6.47;;;4.03;;
11346;SDS011;5728;42.722;23.258;2022-12-01T10:26:11;4.00;;;2.87;;
11346;SDS011;5728;42.722;23.258;2022-12-01T10:28:47;5.17;;;3.60;;
11346;SDS011;5728;42.722;23.258;2022-12-01T10:31:25;7.70;;;4.03;;
11346;SDS011;5728;42.722;23.258;2022-12-01T10:33:59;6.03;;;3.43;;
11346;SDS011;5728;42.722;23.258;2022-12-01T10:36:29;5.83;;;3.47;;
11346;SDS011;5728;42.722;23.258;2022-12-01T10:38:58;5.30;;;3.03;;
11346;SDS011;5728;42.722;23.258;2022-12-01T10:41:26;7.10;;;3.10;;
11346;SDS011;5728;42.722;23.258;2022-12-01T10:43:55;3.27;;;2.27;;
11346;SDS011;5728;42.722;23.258;2022-12-01T10:46:27;3.33;;;2.33;;
11346;SDS011;5728;42.722;23.258;2022-12-01T10:48:59;3.13;;;2.10;;
11346;SDS011;5728;42.722;23.258;2022-12-01T10:51:44;4.07;;;3.00;;
11346;SDS011;5728;42.722;23.258;2022-12-01T10:54:13;5.03;;;2.90;;
11346;SDS011;5728;42.722;23.258;2022-12-01T10:56:40;3.73;;;2.33;;
11346;SDS011;5728;42.722;23.258;2022-12-01T10:59:22;5.50;;;3.13;;
11346;SDS011;5728;42.722;23.258;2022-12-01T11:01:53;3.60;;;2.63;;
11346;SDS011;5728;42.722;23.258;2022-12-01T11:04:26;4.17;;;2.70;;
11346;SDS011;5728;42.722;23.258;2022-12-01T11:07:00;4.37;;;2.70;;
11346;SDS011;5728;42.722;23.258;2022-12-01T11:09:28;3.83;;;2.37;;
11346;SDS011;5728;42.722;23.258;2022-12-01T11:11:56;4.30;;;2.93;;
11346;SDS011;5728;42.722;23.258;2022-12-01T11:14:27;2.20;;;1.80;;
11346;SDS011;5728;42.722;23.258;2022-12-01T11:17:14;5.80;;;2.77;;
11346;SDS011;5728;42.722;23.258;2022-12-01T11:19:48;4.43;;;3.27;;
11346;SDS011;5728;42.722;23.258;2022-12-01T11:22:19;6.07;;;3.90;;
11346;SDS011;5728;42.722;23.258;2022-12-01T11:25:00;4.77;;;3.27;;
11346;SDS011;5728;42.722;23.258;2022-12-01T11:27:29;4.40;;;3.00;;
11346;SDS011;5728;42.722;23.258;2022-12-01T11:29:59;8.13;;;2.97;;
11346;SDS011;5728;42.722;23.258;2022-12-01T11:32:31;2.67;;;2.40;;
11346;SDS011;5728;42.722;23.258;2022-12-01T11:35:01;5.60;;;3.10;;
11346;SDS011;5728;42.722;23.258;2022-12-01T11:37:32;4.63;;;3.23;;
11346;SDS011;5728;42.722;23.258;2022-12-01T11:40:07;3.37;;;2.50;;
11346;SDS011;5728;42.722;23.258;2022-12-01T11:42:40;3.90;;;2.40;;
11346;SDS011;5728;42.722;23.258;2022-12-01T11:45:26;3.30;;;2.90;;
11346;SDS011;5728;42.722;23.258;2022-12-01T11:47:58;5.17;;;3.00;;
11346;SDS011;5728;42.722;23.258;2022-12-01T11:50:28;3.57;;;2.67;;
11346;SDS011;5728;42.722;23.258;2022-12-01T11:52:56;4.43;;;2.40;;
11346;SDS011;5728;42.722;23.258;2022-12-01T11:55:24;4.17;;;3.00;;
11346;SDS011;5728;42.722;23.258;2022-12-01T11:57:53;4.00;;;2.80;;
11346;SDS011;5728;42.722;23.258;2022-12-01T12:00:22;5.53;;;4.00;;
11346;SDS011;5728;42.722;23.258;2022-12-01T12:08:46;4.90;;;2.83;;
11346;SDS011;5728;42.722;23.258;2022-12-01T12:11:39;2.97;;;2.67;;
11346;SDS011;5728;42.722;23.258;2022-12-01T12:14:14;3.07;;;2.60;;
11346;SDS011;5728;42.722;23.258;2022-12-01T12:16:59;3.93;;;2.87;;
11346;SDS011;5728;42.722;23.258;2022-12-01T12:19:54;4.77;;;3.10;;
11346;SDS011;5728;42.722;23.258;2022-12-01T12:22:33;6.57;;;3.60;;
11346;SDS011;5728;42.722;23.258;2022-12-01T12:25:19;4.17;;;3.20;;
11346;SDS011;5728;42.722;23.258;2022-12-01T12:27:55;8.63;;;4.53;;
11346;SDS011;5728;42.722;23.258;2022-12-01T12:30:36;12.33;;;7.60;;
11346;SDS011;5728;42.722;23.258;2022-12-01T12:33:21;7.17;;;4.40;;
11346;SDS011;5728;42.722;23.258;2022-12-01T12:36:02;4.87;;;3.07;;
11346;SDS011;5728;42.722;23.258;2022-12-01T12:38:48;2.90;;;2.60;;
11346;SDS011;5728;42.722;23.258;2022-12-01T12:41:30;3.83;;;2.87;;
11346;SDS011;5728;42.722;23.258;2022-12-01T12:44:05;3.77;;;3.00;;
11346;SDS011;5728;42.722;23.258;2022-12-01T12:46:42;4.60;;;3.00;;
11346;SDS011;5728;42.722;23.258;2022-12-01T12:49:26;3.53;;;2.87;;
11346;SDS011;5728;42.722;23.258;2022-12-01T12:52:03;5.80;;;3.20;;
11346;SDS011;5728;42.722;23.258;2022-12-01T12:54:39;4.17;;;2.50;;
11346;SDS011;5728;42.722;23.258;2022-12-01T12:57:16;3.83;;;3.00;;
11346;SDS011;5728;42.722;23.258;2022-12-01T12:59:49;5.67;;;3.23;;
11346;SDS011;5728;42.722;23.258;2022-12-01T13:02:21;5.90;;;2.83;;
11346;SDS011;5728;42.722;23.258;2022-12-01T13:04:56;3.97;;;2.60;;
11346;SDS011;5728;42.722;23.258;2022-12-01T13:07:36;4.00;;;2.80;;
11346;SDS011;5728;42.722;23.258;2022-12-01T13:10:10;2.97;;;2.53;;
11346;SDS011;5728;42.722;23.258;2022-12-01T13:12:49;4.03;;;2.73;;
11346;SDS011;5728;42.722;23.258;2022-12-01T13:15:20;3.23;;;2.57;;
11346;SDS011;5728;42.722;23.258;2022-12-01T13:17:48;5.07;;;3.20;;
11346;SDS011;5728;42.722;23.258;2022-12-01T13:20:19;8.93;;;4.77;;
11346;SDS011;5728;42.722;23.258;2022-12-01T13:22:50;11.33;;;6.47;;
11346;SDS011;5728;42.722;23.258;2022-12-01T13:25:20;5.77;;;4.47;;
11346;SDS011;5728;42.722;23.258;2022-12-01T13:27:50;6.03;;;3.60;;
11346;SDS011;5728;42.722;23.258;2022-12-01T13:30:19;9.40;;;4.70;;
11346;SDS011;5728;42.722;23.258;2022-12-01T13:32:47;5.23;;;3.80;;
11346;SDS011;5728;42.722;23.258;2022-12-01T13:35:21;3.93;;;3.43;;
11346;SDS011;5728;42.722;23.258;2022-12-01T13:38:15;3.87;;;3.10;;
11346;SDS011;5728;42.722;23.258;2022-12-01T13:40:44;3.03;;;2.37;;
11346;SDS011;5728;42.722;23.258;2022-12-01T13:43:14;3.13;;;2.40;;
11346;SDS011;5728;42.722;23.258;2022-12-01T13:45:44;5.13;;;2.87;;
11346;SDS011;5728;42.722;23.258;2022-12-01T13:48:26;3.47;;;2.20;;
11346;SDS011;5728;42.722;23.258;2022-12-01T13:50:56;2.77;;;2.40;;
11346;SDS011;5728;42.722;23.258;2022-12-01T13:53:27;3.30;;;2.43;;
11346;SDS011;5728;42.722;23.258;2022-12-01T13:55:57;2.03;;;1.87;;
11346;SDS011;5728;42.722;23.258;2022-12-01T13:58:43;3.17;;;2.40;;
11346;SDS011;5728;42.722;23.258;2022-12-01T14:04:21;4.30;;;2.90;;
11346;SDS011;5728;42.722;23.258;2022-12-01T14:07:11;3.40;;;2.63;;
11346;SDS011;5728;42.722;23.258;2022-12-01T14:09:42;4.77;;;2.63;;
11346;SDS011;5728;42.722;23.258;2022-12-01T14:12:14;4.63;;;2.93;;
11346;SDS011;5728;42.722;23.258;2022-12-01T14:14:55;6.23;;;3.23;;
11346;SDS011;5728;42.722;23.258;2022-12-01T14:17:26;5.10;;;2.90;;
11346;SDS011;5728;42.722;23.258;2022-12-01T14:19:55;4.90;;;2.63;;
11346;SDS011;5728;42.722;23.258;2022-12-01T14:22:33;4.70;;;2.97;;
11346;SDS011;5728;42.722;23.258;2022-12-01T14:25:04;4.27;;;3.00;;
11346;SDS011;5728;42.722;23.258;2022-12-01T14:27:47;4.17;;;3.03;;
11346;SDS011;5728;42.722;23.258;2022-12-01T14:36:09;6.30;;;3.50;;
11346;SDS011;5728;42.722;23.258;2022-12-01T14:38:43;5.17;;;3.30;;
11346;SDS011;5728;42.722;23.258;2022-12-01T14:41:19;4.10;;;3.00;;
11346;SDS011;5728;42.722;23.258;2022-12-01T14:43:49;5.13;;;2.90;;
11346;SDS011;5728;42.722;23.258;2022-12-01T14:46:28;3.57;;;2.43;;
11346;SDS011;5728;42.722;23.258;2022-12-01T14:49:00;12.17;;;3.17;;
11346;SDS011;5728;42.722;23.258;2022-12-01T14:51:29;3.03;;;2.40;;
11346;SDS011;5728;42.722;23.258;2022-12-01T14:53:59;5.23;;;3.00;;
11346;SDS011;5728;42.722;23.258;2022-12-01T14:56:29;4.47;;;2.87;;
11346;SDS011;5728;42.722;23.258;2022-12-01T14:58:59;4.77;;;3.03;;
11346;SDS011;5728;42.722;23.258;2022-12-01T15:01:28;6.83;;;3.07;;
11346;SDS011;5728;42.722;23.258;2022-12-01T15:04:00;4.87;;;3.13;;
11346;SDS011;5728;42.722;23.258;2022-12-01T15:06:29;6.93;;;3.03;;
11346;SDS011;5728;42.722;23.258;2022-12-01T15:09:05;6.43;;;3.90;;
11346;SDS011;5728;42.722;23.258;2022-12-01T15:11:35;8.77;;;4.87;;
11346;SDS011;5728;42.722;23.258;2022-12-01T15:14:19;9.10;;;4.83;;
11346;SDS011;5728;42.722;23.258;2022-12-01T15:16:47;7.20;;;4.60;;
11346;SDS011;5728;42.722;23.258;2022-12-01T15:19:21;8.63;;;5.67;;
11346;SDS011;5728;42.722;23.258;2022-12-01T15:21:55;8.77;;;4.50;;
11346;SDS011;5728;42.722;23.258;2022-12-01T15:24:23;9.40;;;5.23;;
11346;SDS011;5728;42.722;23.258;2022-12-01T15:26:53;9.03;;;5.60;;
11346;SDS011;5728;42.722;23.258;2022-12-01T15:29:21;10.70;;;4.87;;